sensor_id;sensor_type;location;lat;lon;timestamp;pressure;altitude;pressure_sealevel;temperature;humidity
7768;BME280;3928;42.626;23.382;2023-04-25T04:45:20;93294.78;;;14.65;93.80
7768;BME280;3928;42.626;23.382;2023-04-25T04:47:47;93297.94;;;14.71;93.83
7768;BME280;3928;42.626;23.382;2023-04-25T04:50:15;93283.88;;;14.77;93.42
7768;BME280;3928;42.626;23.382;2023-04-25T04:52:42;93289.41;;;14.86;93.03
7768;BME280;3928;42.626;23.382;2023-04-25T04:55:09;93289.13;;;14.93;91.94
7768;BME280;3928;42.626;23.382;2023-04-25T04:57:36;93294.97;;;14.96;91.05
7768;BME280;3928;42.626;23.382;2023-04-25T05:00:05;93300.22;;;14.95;91.25
7768;BME280;3928;42.626;23.382;2023-04-25T05:02:38;93289.41;;;14.86;91.74
7768;BME280;3928;42.626;23.382;2023-04-25T05:05:05;93282.94;;;14.60;91.75
7768;BME280;3928;42.626;23.382;2023-04-25T05:07:32;93311.94;;;14.66;91.95
7768;BME280;3928;42.626;23.382;2023-04-25T05:09:59;93299.09;;;14.47;92.44
7768;BME280;3928;42.626;23.382;2023-04-25T05:12:26;93318.25;;;14.60;92.27
7768;BME280;3928;42.626;23.382;2023-04-25T05:14:52;93314.63;;;14.64;93.21
7768;BME280;3928;42.626;23.382;2023-04-25T05:17:19;93320.09;;;14.75;92.33
7768;BME280;3928;42.626;23.382;2023-04-25T05:19:47;93313.19;;;14.76;91.83
7768;BME280;3928;42.626;23.382;2023-04-25T05:22:14;93324.91;;;14.83;91.90
7768;BME280;3928;42.626;23.382;2023-04-25T05:24:41;93328.75;;;14.91;91.52
7768;BME280;3928;42.626;23.382;2023-04-25T05:27:08;93322.63;;;14.94;90.71
7768;BME280;3928;42.626;23.382;2023-04-25T05:29:35;93312.38;;;14.93;90.73
7768;BME280;3928;42.626;23.382;2023-04-25T05:32:02;93321.72;;;14.95;90.32
7768;BME280;3928;42.626;23.382;2023-04-25T05:34:29;93324.75;;;15.03;90.08
7768;BME280;3928;42.626;23.382;2023-04-25T05:36:57;93328.75;;;14.91;89.66
7768;BME280;3928;42.626;23.382;2023-04-25T05:39:24;93315.09;;;14.89;89.57
7768;BME280;3928;42.626;23.382;2023-04-25T05:41:52;93319.81;;;14.99;89.43
7768;BME280;3928;42.626;23.382;2023-04-25T05:44:19;93317.97;;;15.01;89.24
7768;BME280;3928;42.626;23.382;2023-04-25T05:46:47;93329.06;;;15.03;89.91
7768;BME280;3928;42.626;23.382;2023-04-25T05:49:14;93333.56;;;14.99;89.93
7768;BME280;3928;42.626;23.382;2023-04-25T05:51:42;93329.69;;;15.08;89.92
7768;BME280;3928;42.626;23.382;2023-04-25T05:54:10;93257.53;;;14.70;89.88
7768;BME280;3928;42.626;23.382;2023-04-25T05:56:37;93327.88;;;15.10;87.95
7768;BME280;3928;42.626;23.382;2023-04-25T05:59:03;93324.19;;;14.79;88.75
7768;BME280;3928;42.626;23.382;2023-04-25T06:01:30;93331.72;;;14.84;89.86
7768;BME280;3928;42.626;23.382;2023-04-25T06:03:57;93333.78;;;14.95;90.44
7768;BME280;3928;42.626;23.382;2023-04-25T06:06:24;93324.97;;;14.99;90.76
7768;BME280;3928;42.626;23.382;2023-04-25T06:08:52;93331.44;;;15.07;90.69
7768;BME280;3928;42.626;23.382;2023-04-25T06:11:20;93333.59;;;15.16;89.49
7768;BME280;3928;42.626;23.382;2023-04-25T06:13:47;93330.16;;;15.16;87.85
7768;BME280;3928;42.626;23.382;2023-04-25T06:16:14;93322.16;;;15.20;89.01
7768;BME280;3928;42.626;23.382;2023-04-25T06:18:40;93321.72;;;15.30;89.22
7768;BME280;3928;42.626;23.382;2023-04-25T06:21:07;93320.47;;;15.37;88.11
7768;BME280;3928;42.626;23.382;2023-04-25T06:23:34;93323.34;;;15.48;87.15
7768;BME280;3928;42.626;23.382;2023-04-25T06:26:01;93327.97;;;15.59;86.20
7768;BME280;3928;42.626;23.382;2023-04-25T06:28:30;93317.88;;;15.54;85.68
7768;BME280;3928;42.626;23.382;2023-04-25T06:30:56;93337.97;;;15.66;86.29
7768;BME280;3928;42.626;23.382;2023-04-25T06:33:23;93335.13;;;15.71;85.94
7768;BME280;3928;42.626;23.382;2023-04-25T06:35:50;93336.16;;;15.84;85.23
7768;BME280;3928;42.626;23.382;2023-04-25T06:38:17;93330.91;;;15.86;85.09
7768;BME280;3928;42.626;23.382;2023-04-25T06:40:44;93334.59;;;15.97;85.11
7768;BME280;3928;42.626;23.382;2023-04-25T06:43:10;93325.59;;;16.04;84.55
7768;BME280;3928;42.626;23.382;2023-04-25T06:45:39;93334.03;;;16.08;85.83
7768;BME280;3928;42.626;23.382;2023-04-25T06:48:06;93331.69;;;16.19;83.38
7768;BME280;3928;42.626;23.382;2023-04-25T06:50:33;93343.25;;;16.29;82.62
7768;BME280;3928;42.626;23.382;2023-04-25T06:53:00;93339.06;;;16.43;82.42
7768;BME280;3928;42.626;23.382;2023-04-25T06:55:27;93324.22;;;16.46;82.37
7768;BME280;3928;42.626;23.382;2023-04-25T06:57:54;93331.19;;;16.44;81.72
7768;BME280;3928;42.626;23.382;2023-04-25T07:00:23;93340.41;;;16.50;82.18
7768;BME280;3928;42.626;23.382;2023-04-25T07:02:51;93347.06;;;16.54;80.59
7768;BME280;3928;42.626;23.382;2023-04-25T07:05:18;93347.31;;;16.65;80.44
7768;BME280;3928;42.626;23.382;2023-04-25T07:07:45;93328.91;;;16.71;80.12
7768;BME280;3928;42.626;23.382;2023-04-25T07:10:12;93344.41;;;16.87;79.81
7768;BME280;3928;42.626;23.382;2023-04-25T07:12:39;93292.09;;;16.64;79.33
7768;BME280;3928;42.626;23.382;2023-04-25T07:15:07;93334.50;;;17.09;84.90
7768;BME280;3928;42.626;23.382;2023-04-25T07:17:35;93330.41;;;17.35;79.29
7768;BME280;3928;42.626;23.382;2023-04-25T07:20:04;93333.66;;;17.09;76.34
7768;BME280;3928;42.626;23.382;2023-04-25T07:22:33;93350.84;;;16.80;78.28
7768;BME280;3928;42.626;23.382;2023-04-25T07:24:59;93335.28;;;16.80;78.47
7768;BME280;3928;42.626;23.382;2023-04-25T07:27:26;93340.91;;;16.88;78.64
7768;BME280;3928;42.626;23.382;2023-04-25T07:29:53;93326.13;;;17.04;78.28
7768;BME280;3928;42.626;23.382;2023-04-25T07:35:07;93334.63;;;17.22;78.78
7768;BME280;3928;42.626;23.382;2023-04-25T07:37:35;93328.53;;;17.37;77.22
7768;BME280;3928;42.626;23.382;2023-04-25T07:40:02;93333.19;;;17.32;77.05
7768;BME280;3928;42.626;23.382;2023-04-25T07:42:30;93331.88;;;17.39;76.41
7768;BME280;3928;42.626;23.382;2023-04-25T07:44:57;93327.53;;;17.40;76.58
7768;BME280;3928;42.626;23.382;2023-04-25T07:47:24;93323.34;;;17.37;76.89
7768;BME280;3928;42.626;23.382;2023-04-25T07:49:51;93319.31;;;17.47;76.94
7768;BME280;3928;42.626;23.382;2023-04-25T07:52:19;93323.03;;;17.58;76.20
7768;BME280;3928;42.626;23.382;2023-04-25T07:54:47;93319.91;;;17.67;76.30
7768;BME280;3928;42.626;23.382;2023-04-25T07:57:14;93312.13;;;17.81;75.67
7768;BME280;3928;42.626;23.382;2023-04-25T07:59:42;93322.63;;;17.94;74.32
7768;BME280;3928;42.626;23.382;2023-04-25T08:02:09;93316.38;;;18.10;73.82
7768;BME280;3928;42.626;23.382;2023-04-25T08:04:37;93317.31;;;18.24;72.48
7768;BME280;3928;42.626;23.382;2023-04-25T08:07:04;93314.13;;;18.47;72.18
7768;BME280;3928;42.626;23.382;2023-04-25T08:09:32;93309.78;;;18.75;70.61
7768;BME280;3928;42.626;23.382;2023-04-25T08:12:00;93300.09;;;19.04;70.87
7768;BME280;3928;42.626;23.382;2023-04-25T08:14:27;93313.28;;;19.40;69.42
7768;BME280;3928;42.626;23.382;2023-04-25T08:17:00;93315.22;;;19.76;67.81
7768;BME280;3928;42.626;23.382;2023-04-25T08:19:27;93315.84;;;20.05;66.62
7768;BME280;3928;42.626;23.382;2023-04-25T08:21:54;93316.44;;;20.22;65.79
7768;BME280;3928;42.626;23.382;2023-04-25T08:24:21;93304.97;;;20.37;64.90
7768;BME280;3928;42.626;23.382;2023-04-25T08:26:50;93315.72;;;20.69;62.68
7768;BME280;3928;42.626;23.382;2023-04-25T08:29:17;93296.03;;;20.89;60.91
7768;BME280;3928;42.626;23.382;2023-04-25T08:31:44;93303.63;;;21.16;60.81
7768;BME280;3928;42.626;23.382;2023-04-25T08:34:12;93296.25;;;21.34;59.20
7768;BME280;3928;42.626;23.382;2023-04-25T08:36:38;93291.38;;;21.40;57.46
7768;BME280;3928;42.626;23.382;2023-04-25T08:39:05;93295.13;;;21.25;56.93
7768;BME280;3928;42.626;23.382;2023-04-25T08:41:32;93275.38;;;21.34;57.10
7768;BME280;3928;42.626;23.382;2023-04-25T08:44:03;93290.38;;;21.65;56.66
7768;BME280;3928;42.626;23.382;2023-04-25T08:46:30;93300.03;;;21.87;55.13
7768;BME280;3928;42.626;23.382;2023-04-25T08:49:00;93302.75;;;21.97;53.22
7768;BME280;3928;42.626;23.382;2023-04-25T08:51:31;93298.00;;;21.79;52.45
7768;BME280;3928;42.626;23.382;2023-04-25T08:54:07;93289.81;;;21.84;49.32
7768;BME280;3928;42.626;23.382;2023-04-25T08:56:34;93290.69;;;22.18;48.05
7768;BME280;3928;42.626;23.382;2023-04-25T08:59:03;93284.38;;;22.32;49.33
7768;BME280;3928;42.626;23.382;2023-04-25T09:01:48;93285.47;;;22.29;48.55
7768;BME280;3928;42.626;23.382;2023-04-25T09:04:15;93268.97;;;22.06;46.64
7768;BME280;3928;42.626;23.382;2023-04-25T09:06:42;93284.53;;;22.08;48.18
7768;BME280;3928;42.626;23.382;2023-04-25T09:09:09;93287.69;;;22.00;47.84
7768;BME280;3928;42.626;23.382;2023-04-25T09:11:36;93279.84;;;22.00;47.74
7768;BME280;3928;42.626;23.382;2023-04-25T09:14:15;93271.22;;;22.11;46.72
7768;BME280;3928;42.626;23.382;2023-04-25T09:16:59;93280.56;;;22.36;50.10
7768;BME280;3928;42.626;23.382;2023-04-25T09:19:27;93277.94;;;22.47;50.20
7768;BME280;3928;42.626;23.382;2023-04-25T09:21:55;93272.25;;;22.53;50.68
7768;BME280;3928;42.626;23.382;2023-04-25T09:24:33;93284.38;;;22.43;49.13
7768;BME280;3928;42.626;23.382;2023-04-25T09:27:03;93281.19;;;22.28;49.62
7768;BME280;3928;42.626;23.382;2023-04-25T09:29:32;93263.13;;;22.25;49.22
7768;BME280;3928;42.626;23.382;2023-04-25T09:32:20;93268.56;;;22.00;49.26
7768;BME280;3928;42.626;23.382;2023-04-25T09:34:48;93274.41;;;22.03;49.74
7768;BME280;3928;42.626;23.382;2023-04-25T09:37:20;93277.97;;;22.02;49.26
7768;BME280;3928;42.626;23.382;2023-04-25T09:39:47;93271.28;;;21.87;51.35
7768;BME280;3928;42.626;23.382;2023-04-25T09:42:15;93273.19;;;21.85;51.75
7768;BME280;3928;42.626;23.382;2023-04-25T09:44:44;93265.34;;;21.63;53.62
7768;BME280;3928;42.626;23.382;2023-04-25T09:47:12;93281.47;;;21.56;54.23
7768;BME280;3928;42.626;23.382;2023-04-25T09:49:40;93284.66;;;21.49;55.31
7768;BME280;3928;42.626;23.382;2023-04-25T09:52:09;93277.88;;;21.35;55.17
7768;BME280;3928;42.626;23.382;2023-04-25T09:54:36;93271.19;;;21.31;55.95
7768;BME280;3928;42.626;23.382;2023-04-25T09:57:09;93273.00;;;21.18;56.88
7768;BME280;3928;42.626;23.382;2023-04-25T09:59:39;93278.00;;;21.10;56.49
7768;BME280;3928;42.626;23.382;2023-04-25T10:02:07;93263.97;;;20.76;55.69
7768;BME280;3928;42.626;23.382;2023-04-25T10:04:37;93278.06;;;20.49;54.77
7768;BME280;3928;42.626;23.382;2023-04-25T10:07:06;93262.50;;;20.35;57.51
7768;BME280;3928;42.626;23.382;2023-04-25T10:09:33;93267.53;;;20.38;60.17
7768;BME280;3928;42.626;23.382;2023-04-25T10:12:00;93272.22;;;20.46;60.69
7768;BME280;3928;42.626;23.382;2023-04-25T10:14:29;93263.25;;;20.37;58.60
7768;BME280;3928;42.626;23.382;2023-04-25T10:16:57;93247.75;;;20.23;58.72
7768;BME280;3928;42.626;23.382;2023-04-25T10:19:26;93253.28;;;20.18;61.06
7768;BME280;3928;42.626;23.382;2023-04-25T10:22:02;93254.13;;;20.19;63.14
7768;BME280;3928;42.626;23.382;2023-04-25T10:24:30;93266.59;;;20.39;63.76
7768;BME280;3928;42.626;23.382;2023-04-25T10:26:58;93265.47;;;20.67;61.91
7768;BME280;3928;42.626;23.382;2023-04-25T10:29:25;93252.44;;;20.67;51.31
7768;BME280;3928;42.626;23.382;2023-04-25T10:31:53;93244.72;;;20.89;50.35
7768;BME280;3928;42.626;23.382;2023-04-25T10:34:23;93242.66;;;21.17;46.51
7768;BME280;3928;42.626;23.382;2023-04-25T10:36:52;93237.19;;;21.44;44.80
7768;BME280;3928;42.626;23.382;2023-04-25T10:39:24;93245.41;;;21.73;44.66
7768;BME280;3928;42.626;23.382;2023-04-25T10:41:56;93254.66;;;21.88;43.45
7768;BME280;3928;42.626;23.382;2023-04-25T10:44:26;93242.22;;;22.03;42.46
7768;BME280;3928;42.626;23.382;2023-04-25T10:46:55;93241.88;;;22.07;40.70
7768;BME280;3928;42.626;23.382;2023-04-25T10:49:31;93251.94;;;22.01;40.29
7768;BME280;3928;42.626;23.382;2023-04-25T10:52:18;93236.25;;;21.89;42.62
7768;BME280;3928;42.626;23.382;2023-04-25T10:54:49;93243.25;;;22.00;40.77
7768;BME280;3928;42.626;23.382;2023-04-25T10:57:30;93247.31;;;21.93;41.75
7768;BME280;3928;42.626;23.382;2023-04-25T11:00:02;93261.78;;;21.75;46.94
7768;BME280;3928;42.626;23.382;2023-04-25T11:02:32;93265.19;;;21.53;48.54
7768;BME280;3928;42.626;23.382;2023-04-25T11:05:03;93267.28;;;21.01;50.98
7768;BME280;3928;42.626;23.382;2023-04-25T11:07:34;93286.53;;;20.64;51.88
7768;BME280;3928;42.626;23.382;2023-04-25T11:10:05;93288.44;;;19.87;54.63
7768;BME280;3928;42.626;23.382;2023-04-25T11:12:32;93282.13;;;19.78;55.35
7768;BME280;3928;42.626;23.382;2023-04-25T11:14:59;93260.38;;;19.14;48.78
7768;BME280;3928;42.626;23.382;2023-04-25T11:17:27;93260.13;;;19.32;50.57
7768;BME280;3928;42.626;23.382;2023-04-25T11:19:54;93262.63;;;19.46;49.67
7768;BME280;3928;42.626;23.382;2023-04-25T11:22:22;93251.72;;;19.66;48.07
7768;BME280;3928;42.626;23.382;2023-04-25T11:24:50;93249.38;;;20.00;49.62
7768;BME280;3928;42.626;23.382;2023-04-25T11:27:17;93249.69;;;20.44;48.46
7768;BME280;3928;42.626;23.382;2023-04-25T11:29:44;93240.00;;;21.06;47.73
7768;BME280;3928;42.626;23.382;2023-04-25T11:32:15;93245.63;;;21.58;44.72
7768;BME280;3928;42.626;23.382;2023-04-25T11:34:43;93250.50;;;21.63;43.56
7768;BME280;3928;42.626;23.382;2023-04-25T11:37:11;93248.50;;;21.55;46.24
7768;BME280;3928;42.626;23.382;2023-04-25T11:39:42;93252.88;;;21.55;49.46
7768;BME280;3928;42.626;23.382;2023-04-25T11:42:11;93245.03;;;21.55;48.58
7768;BME280;3928;42.626;23.382;2023-04-25T11:44:38;93253.81;;;21.19;49.28
7768;BME280;3928;42.626;23.382;2023-04-25T11:47:06;93247.78;;;20.94;49.69
7768;BME280;3928;42.626;23.382;2023-04-25T11:49:33;93254.75;;;20.83;50.79
7768;BME280;3928;42.626;23.382;2023-04-25T11:52:01;93250.81;;;20.77;51.68
7768;BME280;3928;42.626;23.382;2023-04-25T11:54:29;93251.53;;;20.55;53.64
7768;BME280;3928;42.626;23.382;2023-04-25T11:56:55;93282.38;;;20.12;53.87
7768;BME280;3928;42.626;23.382;2023-04-25T11:59:25;93294.72;;;19.59;59.43
7768;BME280;3928;42.626;23.382;2023-04-25T12:01:53;93294.00;;;19.17;55.79
7768;BME280;3928;42.626;23.382;2023-04-25T12:04:20;93299.88;;;17.97;60.40
7768;BME280;3928;42.626;23.382;2023-04-25T12:06:50;93189.25;;;16.36;63.70
7768;BME280;3928;42.626;23.382;2023-04-25T12:09:19;93274.00;;;16.94;64.89
7768;BME280;3928;42.626;23.382;2023-04-25T12:11:52;93257.97;;;16.88;67.23
7768;BME280;3928;42.626;23.382;2023-04-25T12:14:23;93261.69;;;16.68;66.28
7768;BME280;3928;42.626;23.382;2023-04-25T12:16:55;93262.03;;;16.62;66.82
7768;BME280;3928;42.626;23.382;2023-04-25T12:19:23;93255.03;;;16.48;68.66
7768;BME280;3928;42.626;23.382;2023-04-25T12:21:50;93249.13;;;16.46;70.65
7768;BME280;3928;42.626;23.382;2023-04-25T12:24:21;93252.28;;;16.20;73.06
7768;BME280;3928;42.626;23.382;2023-04-25T12:26:50;93243.00;;;16.31;73.38
7768;BME280;3928;42.626;23.382;2023-04-25T12:29:19;93229.88;;;16.50;72.59
7768;BME280;3928;42.626;23.382;2023-04-25T12:31:46;93234.03;;;16.23;72.54
7768;BME280;3928;42.626;23.382;2023-04-25T12:34:15;93223.16;;;16.16;73.92
7768;BME280;3928;42.626;23.382;2023-04-25T12:36:42;93222.06;;;16.20;71.52
7768;BME280;3928;42.626;23.382;2023-04-25T12:39:14;93226.31;;;16.21;69.27
7768;BME280;3928;42.626;23.382;2023-04-25T12:41:41;93221.78;;;16.41;66.84
7768;BME280;3928;42.626;23.382;2023-04-25T12:44:07;93228.44;;;16.45;68.35
7768;BME280;3928;42.626;23.382;2023-04-25T12:46:35;93264.72;;;16.45;67.06
7768;BME280;3928;42.626;23.382;2023-04-25T12:49:02;93263.44;;;16.83;67.34
7768;BME280;3928;42.626;23.382;2023-04-25T12:51:31;93269.16;;;17.18;66.87
7768;BME280;3928;42.626;23.382;2023-04-25T12:53:58;93273.53;;;17.46;65.50
7768;BME280;3928;42.626;23.382;2023-04-25T12:56:25;93277.00;;;17.75;64.39
7768;BME280;3928;42.626;23.382;2023-04-25T12:58:52;93280.97;;;18.09;64.95
7768;BME280;3928;42.626;23.382;2023-04-25T13:01:19;93287.97;;;18.22;65.62
7768;BME280;3928;42.626;23.382;2023-04-25T13:03:46;93294.13;;;18.21;64.35
7768;BME280;3928;42.626;23.382;2023-04-25T13:06:14;93289.66;;;18.37;62.50
7768;BME280;3928;42.626;23.382;2023-04-25T13:08:43;93290.41;;;18.93;62.61
7768;BME280;3928;42.626;23.382;2023-04-25T13:11:10;93284.75;;;19.39;61.20
7768;BME280;3928;42.626;23.382;2023-04-25T13:13:37;93300.28;;;19.40;55.70
7768;BME280;3928;42.626;23.382;2023-04-25T13:16:06;93284.97;;;19.36;55.69
7768;BME280;3928;42.626;23.382;2023-04-25T13:18:34;93290.78;;;19.26;54.14
7768;BME280;3928;42.626;23.382;2023-04-25T13:21:01;93292.84;;;19.09;55.31
7768;BME280;3928;42.626;23.382;2023-04-25T13:23:29;93292.34;;;18.77;59.15
7768;BME280;3928;42.626;23.382;2023-04-25T13:25:57;93287.06;;;18.23;62.08
7768;BME280;3928;42.626;23.382;2023-04-25T13:28:24;93296.53;;;17.67;67.59
7768;BME280;3928;42.626;23.382;2023-04-25T13:30:51;93293.44;;;17.32;68.38
7768;BME280;3928;42.626;23.382;2023-04-25T13:33:18;93293.16;;;17.22;69.99
7768;BME280;3928;42.626;23.382;2023-04-25T13:35:46;93294.19;;;17.04;72.00
7768;BME280;3928;42.626;23.382;2023-04-25T13:38:19;93306.50;;;16.70;74.79
7768;BME280;3928;42.626;23.382;2023-04-25T13:40:47;93306.81;;;16.48;76.14
7768;BME280;3928;42.626;23.382;2023-04-25T13:43:15;93302.16;;;16.71;78.27
7768;BME280;3928;42.626;23.382;2023-04-25T13:45:42;93293.53;;;16.54;76.94
7768;BME280;3928;42.626;23.382;2023-04-25T13:48:08;93302.00;;;16.26;76.68
7768;BME280;3928;42.626;23.382;2023-04-25T13:50:35;93292.34;;;15.97;77.31
7768;BME280;3928;42.626;23.382;2023-04-25T13:53:02;93285.44;;;15.97;79.89
7768;BME280;3928;42.626;23.382;2023-04-25T13:55:29;93290.00;;;15.59;79.54
7768;BME280;3928;42.626;23.382;2023-04-25T13:57:56;93285.22;;;15.69;79.94
7768;BME280;3928;42.626;23.382;2023-04-25T14:00:24;93281.47;;;15.74;79.41
7768;BME280;3928;42.626;23.382;2023-04-25T14:02:51;93282.97;;;15.45;79.49
7768;BME280;3928;42.626;23.382;2023-04-25T14:05:19;93277.88;;;15.44;80.26
7768;BME280;3928;42.626;23.382;2023-04-25T14:07:45;93248.59;;;15.28;77.98
7768;BME280;3928;42.626;23.382;2023-04-25T14:10:12;93258.59;;;15.34;77.74
7768;BME280;3928;42.626;23.382;2023-04-25T14:12:40;93262.13;;;15.48;77.33
7768;BME280;3928;42.626;23.382;2023-04-25T14:15:09;93260.03;;;15.39;77.81
7768;BME280;3928;42.626;23.382;2023-04-25T14:17:37;93255.66;;;15.57;78.42
7768;BME280;3928;42.626;23.382;2023-04-25T14:20:06;93252.88;;;15.77;77.80
7768;BME280;3928;42.626;23.382;2023-04-25T14:22:34;93219.81;;;15.83;78.13
7768;BME280;3928;42.626;23.382;2023-04-25T14:25:01;93243.53;;;16.22;78.90
7768;BME280;3928;42.626;23.382;2023-04-25T14:27:28;93256.38;;;16.40;78.33
7768;BME280;3928;42.626;23.382;2023-04-25T14:29:56;93248.47;;;16.57;77.60
7768;BME280;3928;42.626;23.382;2023-04-25T14:32:23;93240.50;;;16.30;79.22
7768;BME280;3928;42.626;23.382;2023-04-25T14:34:51;93247.88;;;16.06;79.58
7768;BME280;3928;42.626;23.382;2023-04-25T14:37:18;93161.56;;;15.44;80.19
7768;BME280;3928;42.626;23.382;2023-04-25T14:39:45;93243.19;;;15.81;80.29
7768;BME280;3928;42.626;23.382;2023-04-25T14:42:12;93241.88;;;15.90;80.57
7768;BME280;3928;42.626;23.382;2023-04-25T14:44:38;93237.44;;;15.92;80.03
7768;BME280;3928;42.626;23.382;2023-04-25T14:47:05;93247.69;;;16.09;79.13
7768;BME280;3928;42.626;23.382;2023-04-25T14:49:32;93240.88;;;15.92;79.65
7768;BME280;3928;42.626;23.382;2023-04-25T14:52:02;93246.47;;;16.00;80.38
7768;BME280;3928;42.626;23.382;2023-04-25T14:54:29;93230.53;;;15.92;81.40
7768;BME280;3928;42.626;23.382;2023-04-25T14:56:55;93228.59;;;15.80;81.50
7768;BME280;3928;42.626;23.382;2023-04-25T14:59:23;93230.25;;;15.97;81.63
7768;BME280;3928;42.626;23.382;2023-04-25T15:01:50;93211.63;;;15.74;83.10
7768;BME280;3928;42.626;23.382;2023-04-25T15:04:18;93232.53;;;15.87;82.05
7768;BME280;3928;42.626;23.382;2023-04-25T15:06:46;93228.69;;;15.94;80.36
7768;BME280;3928;42.626;23.382;2023-04-25T15:09:14;93214.34;;;15.89;79.67
7768;BME280;3928;42.626;23.382;2023-04-25T15:11:42;93221.81;;;16.09;78.54
7768;BME280;3928;42.626;23.382;2023-04-25T15:14:08;93206.56;;;16.04;78.27
7768;BME280;3928;42.626;23.382;2023-04-25T15:16:35;93182.63;;;16.01;76.58
7768;BME280;3928;42.626;23.382;2023-04-25T15:19:02;93208.13;;;16.23;76.71
7768;BME280;3928;42.626;23.382;2023-04-25T15:21:30;93203.47;;;16.14;75.52
7768;BME280;3928;42.626;23.382;2023-04-25T15:23:56;93189.78;;;15.96;76.19
7768;BME280;3928;42.626;23.382;2023-04-25T15:26:24;93186.13;;;16.00;76.63
7768;BME280;3928;42.626;23.382;2023-04-25T15:28:51;93196.94;;;16.06;76.47
7768;BME280;3928;42.626;23.382;2023-04-25T15:31:18;93164.88;;;16.09;77.11
7768;BME280;3928;42.626;23.382;2023-04-25T15:33:45;93185.91;;;16.19;75.33
7768;BME280;3928;42.626;23.382;2023-04-25T15:36:12;93181.88;;;16.29;76.57
7768;BME280;3928;42.626;23.382;2023-04-25T15:39:00;93174.53;;;16.37;75.71
7768;BME280;3928;42.626;23.382;2023-04-25T15:41:29;93174.47;;;16.53;76.72
7768;BME280;3928;42.626;23.382;2023-04-25T15:43:59;93159.25;;;16.62;77.77
7768;BME280;3928;42.626;23.382;2023-04-25T15:46:26;93173.38;;;16.87;77.77
7768;BME280;3928;42.626;23.382;2023-04-25T15:48:53;93172.03;;;16.95;77.48
7768;BME280;3928;42.626;23.382;2023-04-25T15:51:20;93170.25;;;17.10;74.24
7768;BME280;3928;42.626;23.382;2023-04-25T15:53:47;93167.56;;;17.12;72.16
7768;BME280;3928;42.626;23.382;2023-04-25T15:56:14;93171.94;;;17.11;71.46
7768;BME280;3928;42.626;23.382;2023-04-25T15:58:42;93172.47;;;17.02;70.42
7768;BME280;3928;42.626;23.382;2023-04-25T16:01:10;93167.28;;;17.02;70.83
7768;BME280;3928;42.626;23.382;2023-04-25T16:03:38;93166.66;;;16.99;71.10
7768;BME280;3928;42.626;23.382;2023-04-25T16:06:05;93180.13;;;16.75;72.00
7768;BME280;3928;42.626;23.382;2023-04-25T16:08:32;93179.13;;;16.62;73.17
7768;BME280;3928;42.626;23.382;2023-04-25T16:11:00;93182.66;;;16.61;73.79
7768;BME280;3928;42.626;23.382;2023-04-25T16:13:27;93180.03;;;16.47;73.18
7768;BME280;3928;42.626;23.382;2023-04-25T16:18:41;93169.41;;;16.65;71.65
7768;BME280;3928;42.626;23.382;2023-04-25T16:21:08;93172.91;;;16.80;70.30
7768;BME280;3928;42.626;23.382;2023-04-25T16:23:36;93176.38;;;16.95;70.42
7768;BME280;3928;42.626;23.382;2023-04-25T16:26:02;93166.44;;;17.02;70.36
7768;BME280;3928;42.626;23.382;2023-04-25T16:28:29;93180.91;;;17.20;70.25
7768;BME280;3928;42.626;23.382;2023-04-25T16:30:58;93184.63;;;17.30;70.52
7768;BME280;3928;42.626;23.382;2023-04-25T16:33:25;93191.81;;;17.39;70.76
7768;BME280;3928;42.626;23.382;2023-04-25T16:35:51;93189.81;;;17.44;73.29
7768;BME280;3928;42.626;23.382;2023-04-25T16:38:21;93186.84;;;17.65;79.57
7768;BME280;3928;42.626;23.382;2023-04-25T16:40:48;93165.63;;;17.58;71.10
7768;BME280;3928;42.626;23.382;2023-04-25T16:43:14;93196.47;;;17.48;70.01
7768;BME280;3928;42.626;23.382;2023-04-25T16:45:44;93196.19;;;17.39;69.80
7768;BME280;3928;42.626;23.382;2023-04-25T16:48:12;93179.59;;;16.99;67.43
7768;BME280;3928;42.626;23.382;2023-04-25T16:50:40;93203.16;;;16.80;67.25
7768;BME280;3928;42.626;23.382;2023-04-25T16:53:07;93184.00;;;16.52;68.28
7768;BME280;3928;42.626;23.382;2023-04-25T16:55:34;93219.84;;;16.44;70.12
7768;BME280;3928;42.626;23.382;2023-04-25T16:58:00;93221.47;;;16.31;72.35
7768;BME280;3928;42.626;23.382;2023-04-25T17:00:27;93231.50;;;16.05;74.58
7768;BME280;3928;42.626;23.382;2023-04-25T17:02:54;93236.34;;;15.96;76.02
7768;BME280;3928;42.626;23.382;2023-04-25T17:05:23;93230.53;;;15.92;76.80
7768;BME280;3928;42.626;23.382;2023-04-25T17:07:50;93234.34;;;15.69;79.66
7768;BME280;3928;42.626;23.382;2023-04-25T17:10:17;93226.00;;;15.31;82.26
7768;BME280;3928;42.626;23.382;2023-04-25T17:12:45;93226.72;;;15.17;84.77
7768;BME280;3928;42.626;23.382;2023-04-25T17:15:12;93235.84;;;15.07;84.94
7768;BME280;3928;42.626;23.382;2023-04-25T17:17:39;93240.00;;;15.10;86.13
7768;BME280;3928;42.626;23.382;2023-04-25T17:20:07;93248.84;;;15.06;86.63
7768;BME280;3928;42.626;23.382;2023-04-25T17:22:36;93253.78;;;14.93;86.73
7768;BME280;3928;42.626;23.382;2023-04-25T17:25:03;93239.00;;;14.43;87.69
7768;BME280;3928;42.626;23.382;2023-04-25T17:27:30;93270.88;;;14.42;89.09
7768;BME280;3928;42.626;23.382;2023-04-25T17:29:57;93262.97;;;14.28;90.25
7768;BME280;3928;42.626;23.382;2023-04-25T17:32:24;93267.84;;;14.34;89.06
7768;BME280;3928;42.626;23.382;2023-04-25T17:34:51;93266.84;;;14.37;87.65
7768;BME280;3928;42.626;23.382;2023-04-25T17:37:19;93277.25;;;14.35;86.49
7768;BME280;3928;42.626;23.382;2023-04-25T17:39:48;93274.88;;;14.49;85.68
7768;BME280;3928;42.626;23.382;2023-04-25T17:42:15;93279.22;;;14.49;85.75
7768;BME280;3928;42.626;23.382;2023-04-25T17:44:42;93274.72;;;14.52;85.13
7768;BME280;3928;42.626;23.382;2023-04-25T17:47:09;93276.94;;;14.41;86.31
7768;BME280;3928;42.626;23.382;2023-04-25T17:49:37;93254.38;;;14.27;85.88
7768;BME280;3928;42.626;23.382;2023-04-25T17:52:04;93288.03;;;14.45;85.06
7768;BME280;3928;42.626;23.382;2023-04-25T17:54:31;93279.50;;;14.24;86.12
7768;BME280;3928;42.626;23.382;2023-04-25T17:56:59;93285.44;;;14.45;85.92
7768;BME280;3928;42.626;23.382;2023-04-25T17:59:26;93281.88;;;14.47;85.03
7768;BME280;3928;42.626;23.382;2023-04-25T18:01:53;93284.69;;;14.60;83.85
7768;BME280;3928;42.626;23.382;2023-04-25T18:04:21;93290.34;;;14.68;83.54